Roma, Texas
Current Conditions -  °F | °C
As of 6:55 AM on Tuesday 21 Oct 2014 (Local Time) from KAPY Reporting Station
Haze Haze  
Wind Chill: 68°   Ceiling: Unl
Heat Index: 68°   Visibility: 5mi
Dew Point: 68°   Wind: 3mph
Humidity: 99%   Direction: 20°NNE
Pressure: 29.97"   Gusts: NA
Location:  26.4°N, 99.01°W
Report Text: KAPY 211155Z AUTO 02003KT 5SM BR CLR 20/20 A2997 RMK AO2 T02020200
Loading
Personal Weather Stations






























Interactive Weather Map
Tropical Storm Tracking
New forecast layout! Learn more

10-Day Weather Forecast

Advertisements
Track Severe Weather on mobile